Time;durP1;ratioP1;P1;durP2;ratioP2;P2;SDS_P1;SDS_P2;PMS_P1;PMS_P2;Temp;Humidity;BMP_temperature;BMP_pressure;BME280_temperature;BME280_humidity;BME280_pressure;Samples;Min_cycle;Max_cycle;Signal;HPM_P1;HPM_P2
2024/02/07 00:01:42;;;;;;;3.38;1.08;;;;;;;-2.28;100.00;98776.41;5117405;28;20032;-68
2024/02/07 00:04:07;;;;;;;2.65;1.10;;;;;;;-2.27;100.00;98783.31;5117543;28;20573;-69
2024/02/07 00:06:34;;;;;;;3.95;1.05;;;;;;;-2.15;100.00;98797.78;5099458;28;20054;-68
2024/02/07 00:08:59;;;;;;;1.92;1.00;;;;;;;-2.17;100.00;98791.84;5116913;28;20027;-68
2024/02/07 00:11:24;;;;;;;3.05;1.20;;;;;;;-2.24;100.00;98796.16;5117554;28;20024;-68
2024/02/07 00:13:51;;;;;;;2.90;1.25;;;;;;;-2.20;100.00;98795.63;5115813;28;20038;-68
2024/02/07 00:16:17;;;;;;;3.42;1.30;;;;;;;-2.13;100.00;98798.41;5115432;28;20028;-68
2024/02/07 00:18:42;;;;;;;4.30;1.20;;;;;;;-2.17;100.00;98800.56;5115442;28;20056;-69
2024/02/07 00:21:08;;;;;;;1.67;0.82;;;;;;;-2.07;100.00;98797.75;5115259;28;20122;-69
2024/02/07 00:23:34;;;;;;;5.55;1.00;;;;;;;-2.28;100.00;98779.03;5116745;28;20024;-71
2024/02/07 00:25:59;;;;;;;3.63;1.33;;;;;;;-2.20;100.00;98793.00;5116189;28;20409;-68
2024/02/07 00:28:24;;;;;;;2.90;1.00;;;;;;;-2.10;100.00;98800.72;5119712;28;20048;-70
2024/02/07 00:30:51;;;;;;;2.90;1.25;;;;;;;-2.10;100.00;98798.09;5119599;28;20119;-68
2024/02/07 00:33:16;;;;;;;2.38;1.48;;;;;;;-2.14;100.00;98799.41;5119242;28;20032;-74
2024/02/07 00:35:41;;;;;;;2.85;1.25;;;;;;;-2.11;100.00;98809.63;5120423;28;20078;-70
2024/02/07 00:38:07;;;;;;;2.40;0.93;;;;;;;-2.12;100.00;98805.31;5120166;27;20077;-69
2024/02/07 00:40:33;;;;;;;4.32;1.42;;;;;;;-2.18;100.00;98816.56;5120764;28;20016;-71
2024/02/07 00:42:58;;;;;;;2.80;1.27;;;;;;;-2.33;100.00;98807.66;5119278;28;20032;-69
2024/02/07 00:45:24;;;;;;;2.72;1.20;;;;;;;-2.30;100.00;98825.78;5121219;28;20023;-68
2024/02/07 00:47:49;;;;;;;5.40;1.88;;;;;;;-2.20;100.00;98829.06;5121059;28;20020;-68
2024/02/07 00:50:15;;;;;;;2.63;1.10;;;;;;;-2.08;100.00;98838.28;5119961;28;20040;-68
2024/02/07 00:52:41;;;;;;;3.42;1.30;;;;;;;-2.12;100.00;98842.22;5119286;28;20038;-67
2024/02/07 00:55:07;;;;;;;1.95;1.23;;;;;;;-2.15;100.00;98846.03;5120543;28;20024;-68
2024/02/07 00:57:32;;;;;;;1.15;0.93;;;;;;;-2.18;100.00;98849.00;5120363;28;20356;-67
2024/02/07 00:59:57;;;;;;;2.47;1.33;;;;;;;-2.12;100.00;98852.75;5121081;28;20065;-67
2024/02/07 01:02:23;;;;;;;2.47;1.20;;;;;;;-2.08;100.00;98851.47;5085763;28;20497;-66
2024/02/07 01:04:50;;;;;;;2.05;1.10;;;;;;;-2.11;100.00;98854.44;5120130;28;20039;-67
2024/02/07 01:07:15;;;;;;;3.92;1.35;;;;;;;-2.18;100.00;98848.19;5119792;28;20034;-67
2024/02/07 01:09:41;;;;;;;3.05;1.20;;;;;;;-2.06;100.00;98853.91;5121112;28;20020;-68
2024/02/07 01:12:06;;;;;;;2.20;1.40;;;;;;;-2.08;100.00;98855.91;5120513;27;20497;-67
2024/02/07 01:14:31;;;;;;;4.93;1.40;;;;;;;-2.11;100.00;98854.44;5119783;28;20133;-70
2024/02/07 01:16:57;;;;;;;3.00;1.20;;;;;;;-2.10;100.00;98861.34;5101905;28;20084;-71
2024/02/07 01:19:24;;;;;;;2.20;0.98;;;;;;;-2.06;100.00;98857.38;5118388;28;20032;-70
2024/02/07 01:21:49;;;;;;;3.13;1.50;;;;;;;-2.11;100.00;98861.50;5118581;28;20064;-69
2024/02/07 01:24:15;;;;;;;2.38;1.05;;;;;;;-2.16;100.00;98859.34;5119652;28;20440;-68
2024/02/07 01:26:41;;;;;;;2.88;1.13;;;;;;;-2.16;100.00;98875.97;5119296;28;20053;-69
2024/02/07 01:29:06;;;;;;;3.22;1.20;;;;;;;-2.13;100.00;98874.84;5119256;28;20023;-68
2024/02/07 01:31:31;;;;;;;1.50;1.00;;;;;;;-2.24;100.00;98881.25;5117924;28;20024;-68
2024/02/07 01:33:58;;;;;;;3.38;1.30;;;;;;;-2.24;100.00;98880.44;5118723;28;20024;-68
2024/02/07 01:36:24;;;;;;;2.25;1.30;;;;;;;-2.37;100.00;98865.94;5119435;28;20047;-69
2024/02/07 01:38:50;;;;;;;4.32;1.38;;;;;;;-2.15;100.00;98874.19;5118284;28;20518;-69
2024/02/07 01:41:19;;;;;;;2.83;2.00;;;;;;;-2.34;100.00;98885.06;5099996;28;20049;-68
2024/02/07 01:43:44;;;;;;;3.90;1.70;;;;;;;-2.22;100.00;98878.44;5118006;28;20024;-69
2024/02/07 01:46:12;;;;;;;6.28;1.50;;;;;;;-2.44;100.00;98869.41;5120159;28;20083;-69
2024/02/07 01:48:38;;;;;;;1.23;0.93;;;;;;;-2.29;100.00;98894.09;5117444;28;20020;-68
2024/02/07 01:51:04;;;;;;;2.67;1.20;;;;;;;-2.29;100.00;98898.53;5118363;28;20039;-68
2024/02/07 01:53:30;;;;;;;2.55;1.27;;;;;;;-2.28;100.00;98905.47;5100742;28;20038;-69
2024/02/07 01:55:56;;;;;;;1.70;1.17;;;;;;;-2.34;100.00;98895.59;5119786;28;20031;-69
2024/02/07 01:58:28;;;;;;;3.05;1.70;;;;;;;-2.31;100.00;98882.91;5119854;28;20038;-69
2024/02/07 02:00:54;;;;;;;2.30;1.33;;;;;;;-2.29;100.00;98893.28;5118071;28;20023;-69
2024/02/07 02:03:19;;;;;;;2.60;1.48;;;;;;;-2.22;100.00;98904.78;5117529;28;20034;-68
2024/02/07 02:05:45;;;;;;;1.90;1.00;;;;;;;-2.46;100.00;98895.88;5117391;28;20027;-68
2024/02/07 02:08:10;;;;;;;2.30;1.10;;;;;;;-2.43;100.00;98898.19;5119016;28;20032;-68
2024/02/07 02:10:36;;;;;;;2.10;0.90;;;;;;;-2.26;100.00;98914.84;5117728;28;20042;-68
2024/02/07 02:13:02;;;;;;;2.95;1.38;;;;;;;-2.25;100.00;98920.94;5118388;28;20035;-69
2024/02/07 02:15:28;;;;;;;2.13;1.13;;;;;;;-2.27;100.00;98923.75;5117194;28;20027;-69
2024/02/07 02:17:54;;;;;;;3.33;1.40;;;;;;;-2.32;100.00;98906.75;5118025;28;20039;-69
2024/02/07 02:20:20;;;;;;;2.45;1.40;;;;;;;-2.23;100.00;98940.03;5117587;28;20357;-69
2024/02/07 02:22:47;;;;;;;2.50;1.48;;;;;;;-2.22;100.00;98936.41;5118225;28;20039;-68
2024/02/07 02:25:37;;;;;;;2.33;1.35;;;;;;;-2.24;100.00;98938.41;5118386;28;20031;-68
2024/02/07 02:28:18;;;;;;;2.42;1.20;;;;;;;-2.18;100.00;98943.84;5116602;28;20050;-68
2024/02/07 02:30:53;;;;;;;3.08;1.15;;;;;;;-2.15;100.00;98948.78;5116484;28;20039;-68
2024/02/07 02:33:20;;;;;;;3.13;1.40;;;;;;;-2.16;100.00;98946.31;5117908;28;20062;-69
2024/02/07 02:35:47;;;;;;;2.90;1.20;;;;;;;-2.38;100.00;98922.25;5118484;28;20028;-68
2024/02/07 02:38:13;;;;;;;1.40;1.10;;;;;;;-2.29;100.00;98930.97;5117989;28;20071;-68
2024/02/07 02:40:39;;;;;;;1.35;0.90;;;;;;;-2.21;100.00;98956.53;5116897;28;20027;-68
2024/02/07 02:43:05;;;;;;;2.28;1.10;;;;;;;-2.33;100.00;98956.00;5115797;28;20064;-68
2024/02/07 02:45:31;;;;;;;1.63;0.73;;;;;;;-2.40;100.00;98955.81;5117446;28;20027;-68
2024/02/07 02:47:56;;;;;;;1.30;0.73;;;;;;;-2.26;100.00;98959.63;5117109;28;20390;-68
2024/02/07 02:50:25;;;;;;;1.80;1.05;;;;;;;-2.23;100.00;98935.59;5116957;28;20114;-67
2024/02/07 02:52:51;;;;;;;2.15;0.95;;;;;;;-2.25;100.00;98939.38;5101629;28;20049;-69
2024/02/07 02:55:16;;;;;;;2.88;0.90;;;;;;;-2.12;100.00;98958.16;5117032;28;20027;-68
2024/02/07 02:57:42;;;;;;;1.85;1.00;;;;;;;-2.12;100.00;98955.53;5118507;28;20286;-68
2024/02/07 03:00:09;;;;;;;1.88;1.10;;;;;;;-2.20;100.00;98956.34;5116719;28;20032;-68
2024/02/07 03:02:36;;;;;;;1.48;1.05;;;;;;;-2.18;100.00;98969.38;5116492;28;20023;-70
2024/02/07 03:05:02;;;;;;;5.70;1.33;;;;;;;-2.10;100.00;98968.53;5117069;28;20032;-70
2024/02/07 03:07:54;;;;;;;1.55;1.20;;;;;;;-2.10;100.00;98971.19;5118438;28;20030;-68
2024/02/07 03:10:21;;;;;;;1.98;1.13;;;;;;;-2.21;100.00;98967.06;5117912;28;20027;-68
2024/02/07 03:12:47;;;;;;;4.32;1.67;;;;;;;-2.23;100.00;98971.66;5099954;28;20035;-68
2024/02/07 03:15:12;;;;;;;2.03;1.30;;;;;;;-2.20;100.00;98971.34;5100338;28;20024;-68
2024/02/07 03:17:37;;;;;;;1.70;1.20;;;;;;;-2.22;100.00;98989.09;5116431;28;20110;-70
2024/02/07 03:20:05;;;;;;;1.50;0.77;;;;;;;-2.39;100.00;98967.16;5098865;28;20031;-68
2024/02/07 03:22:30;;;;;;;3.85;1.45;;;;;;;-2.22;100.00;98992.59;5098573;28;20114;-68
2024/02/07 03:24:56;;;;;;;1.73;1.20;;;;;;;-2.23;100.00;98998.00;5115776;28;20034;-68
2024/02/07 03:27:22;;;;;;;1.52;1.10;;;;;;;-2.46;100.00;98961.72;5116350;28;20032;-67
2024/02/07 03:29:47;;;;;;;2.45;1.20;;;;;;;-2.26;100.00;99003.59;5117537;28;20027;-68
2024/02/07 03:32:14;;;;;;;1.35;1.10;;;;;;;-2.23;100.00;99009.34;5117378;28;20123;-68
2024/02/07 03:34:40;;;;;;;1.80;1.35;;;;;;;-2.30;100.00;99016.25;5116173;28;20111;-67
2024/02/07 03:37:05;;;;;;;3.47;1.40;;;;;;;-2.30;100.00;99024.16;5115817;28;20083;-68
2024/02/07 03:39:31;;;;;;;2.50;1.25;;;;;;;-2.28;100.00;99027.47;5115359;28;20051;-68
2024/02/07 03:41:56;;;;;;;1.30;0.88;;;;;;;-2.31;100.00;99019.06;5098731;28;20035;-68
2024/02/07 03:44:23;;;;;;;3.40;1.20;;;;;;;-2.42;100.00;99033.34;5115452;28;20055;-68
2024/02/07 03:46:48;;;;;;;2.03;1.00;;;;;;;-2.57;100.00;98996.25;5116981;28;20031;-70
2024/02/07 03:49:16;;;;;;;2.65;1.15;;;;;;;-2.48;100.00;99040.09;5115994;28;20026;-68
2024/02/07 03:51:41;;;;;;;2.60;1.00;;;;;;;-2.66;100.00;99011.19;5116124;28;20027;-69
2024/02/07 03:54:09;;;;;;;2.83;1.30;;;;;;;-2.42;100.00;99031.56;5117294;28;20375;-68
2024/02/07 03:56:35;;;;;;;2.83;1.00;;;;;;;-2.34;100.00;99046.56;5117393;28;20039;-68
2024/02/07 03:59:03;;;;;;;2.08;1.20;;;;;;;-2.57;100.00;99054.19;5117992;28;20055;-68
2024/02/07 04:01:30;;;;;;;1.70;0.98;;;;;;;-2.74;100.00;99037.50;5117272;28;20058;-69
2024/02/07 04:03:55;;;;;;;1.90;0.90;;;;;;;-2.53;100.00;99065.22;5118179;28;20034;-68
2024/02/07 04:06:21;;;;;;;1.75;0.93;;;;;;;-2.66;100.00;99063.03;5118034;28;20027;-68
2024/02/07 04:08:46;;;;;;;0.98;0.80;;;;;;;-2.57;100.00;99071.81;5118321;28;20020;-68
2024/02/07 05:16:17;;;;;;;1.50;0.90;;;;;;;-2.75;100.00;99185.06;5120660;28;20127;-68
2024/02/07 05:18:43;;;;;;;2.00;1.00;;;;;;;-2.69;100.00;99187.91;5118716;28;20055;-68
2024/02/07 05:21:12;;;;;;;1.02;0.80;;;;;;;-2.64;100.00;99209.34;5119914;28;20062;-68
2024/02/07 05:23:41;;;;;;;3.67;1.10;;;;;;;-2.56;100.00;99216.47;5118920;28;20020;-68
2024/02/07 05:26:08;;;;;;;1.90;1.00;;;;;;;-2.61;100.00;99226.66;5113434;28;20027;-69
2024/02/07 05:28:33;;;;;;;1.73;1.00;;;;;;;-2.75;100.00;99214.00;5119409;28;20051;-68
2024/02/07 05:30:59;;;;;;;2.03;1.00;;;;;;;-2.65;100.00;99233.19;5119259;28;20023;-68
2024/02/07 05:33:24;;;;;;;2.15;0.95;;;;;;;-2.60;100.00;99225.66;5101073;28;20056;-68
2024/02/07 05:35:50;;;;;;;2.55;1.10;;;;;;;-2.65;100.00;99230.53;5118316;28;20471;-68
2024/02/07 05:38:15;;;;;;;1.58;0.95;;;;;;;-2.63;100.00;99231.22;5119352;27;20044;-68
2024/02/07 05:40:41;;;;;;;1.70;0.90;;;;;;;-2.85;100.00;99198.31;5118181;28;20020;-68
2024/02/07 05:43:06;;;;;;;1.88;0.85;;;;;;;-2.76;100.00;99228.16;5118930;28;20029;-68
2024/02/07 05:45:32;;;;;;;1.73;1.00;;;;;;;-2.68;100.00;99241.38;5118203;28;20108;-67
2024/02/07 05:47:57;;;;;;;1.45;0.90;;;;;;;-2.88;100.00;99231.03;5119176;28;20024;-68
2024/02/07 05:50:22;;;;;;;2.33;1.10;;;;;;;-2.71;100.00;99234.63;5101034;28;20034;-68
2024/02/07 05:52:48;;;;;;;2.22;0.82;;;;;;;-2.83;100.00;99241.94;5120346;28;20038;-68
2024/02/07 05:55:14;;;;;;;1.30;0.77;;;;;;;-2.78;100.00;99251.16;5119441;28;20024;-67
2024/02/07 05:57:39;;;;;;;2.58;0.80;;;;;;;-2.96;100.00;99251.19;5120387;28;20027;-68
2024/02/07 06:00:06;;;;;;;0.70;0.68;;;;;;;-2.96;100.00;99254.66;5119270;28;20118;-68
2024/02/07 06:02:32;;;;;;;3.28;1.27;;;;;;;-2.81;100.00;99267.25;5120062;28;20046;-68
2024/02/07 06:05:03;;;;;;;1.42;0.82;;;;;;;-2.87;100.00;99269.53;5118152;28;20028;-68
2024/02/07 06:07:28;;;;;;;1.38;0.82;;;;;;;-2.90;100.00;99275.09;5118617;28;20020;-68
2024/02/07 06:09:54;;;;;;;1.02;0.70;;;;;;;-2.86;100.00;99276.44;5118127;28;20027;-67
2024/02/07 06:12:20;;;;;;;2.25;0.98;;;;;;;-3.01;100.00;99277.97;5119902;28;20115;-68
2024/02/07 06:14:46;;;;;;;1.63;0.93;;;;;;;-2.97;100.00;99278.50;5120127;28;20079;-69
2024/02/07 06:17:11;;;;;;;1.60;0.90;;;;;;;-3.27;100.00;99248.09;5119008;28;20039;-68
2024/02/07 06:19:36;;;;;;;1.65;1.00;;;;;;;-2.88;100.00;99294.22;5100604;28;20032;-70
2024/02/07 06:22:02;;;;;;;1.40;0.73;;;;;;;-2.91;100.00;99291.88;5117976;28;20027;-68
2024/02/07 06:24:27;;;;;;;1.92;1.05;;;;;;;-2.83;100.00;99302.47;5118198;28;20036;-68
2024/02/07 06:26:53;;;;;;;2.63;1.10;;;;;;;-2.84;100.00;99300.81;5114903;28;20066;-68
2024/02/07 06:29:18;;;;;;;1.85;0.85;;;;;;;-2.76;100.00;99312.41;5097198;28;20054;-68
2024/02/07 06:31:44;;;;;;;1.48;0.90;;;;;;;-2.72;100.00;99313.75;5117861;28;20479;-68
2024/02/07 06:34:09;;;;;;;2.08;1.05;;;;;;;-2.84;100.00;99321.88;5118545;28;20058;-68
2024/02/07 06:36:35;;;;;;;1.65;1.00;;;;;;;-2.94;100.00;99320.31;5117937;28;20043;-68
2024/02/07 06:39:00;;;;;;;1.98;0.85;;;;;;;-3.09;100.00;99322.59;5100463;28;20439;-68
2024/02/07 06:41:26;;;;;;;1.40;0.80;;;;;;;-3.14;100.00;99330.13;5118770;28;20393;-68
2024/02/07 06:43:52;;;;;;;1.50;0.70;;;;;;;-3.11;100.00;99337.72;5118874;28;20036;-68
2024/02/07 06:46:17;;;;;;;1.90;0.85;;;;;;;-3.15;100.00;99338.97;5119799;28;20027;-68
2024/02/07 06:48:43;;;;;;;2.95;0.80;;;;;;;-3.20;100.00;99341.22;5117566;28;20031;-68
2024/02/07 06:51:08;;;;;;;1.83;0.80;;;;;;;-3.20;100.00;99343.88;5119846;28;20031;-69
2024/02/07 06:53:34;;;;;;;2.42;0.80;;;;;;;-3.15;100.00;99344.22;5118654;28;20059;-67
2024/02/07 06:55:59;;;;;;;1.73;0.70;;;;;;;-3.18;100.00;99349.78;5123056;28;20478;-67
2024/02/07 06:58:25;;;;;;;1.63;0.70;;;;;;;-3.18;100.00;99349.78;5124610;28;20092;-67
2024/02/07 07:00:50;;;;;;;1.38;0.68;;;;;;;-3.51;100.00;99293.34;5122916;28;20110;-68
2024/02/07 07:03:16;;;;;;;1.90;0.90;;;;;;;-3.16;100.00;99347.84;5119449;28;20118;-68
2024/02/07 07:05:43;;;;;;;1.67;0.90;;;;;;;-3.25;100.00;99340.81;5121440;28;20024;-67
2024/02/07 07:08:09;;;;;;;2.28;0.82;;;;;;;-3.21;100.00;99361.44;5119102;28;20051;-68
2024/02/07 07:10:34;;;;;;;1.77;0.95;;;;;;;-3.10;100.00;99370.94;5119650;28;20031;-69
2024/02/07 07:12:59;;;;;;;1.50;0.73;;;;;;;-3.04;100.00;99383.50;5119409;28;20039;-68
2024/02/07 07:15:25;;;;;;;1.63;1.00;;;;;;;-3.13;100.00;99381.75;5118100;28;20036;-68
2024/02/07 07:17:50;;;;;;;1.58;0.90;;;;;;;-3.06;100.00;99385.47;5118707;28;20024;-68
2024/02/07 07:20:15;;;;;;;3.28;1.30;;;;;;;-3.13;100.00;99397.53;5118835;28;20032;-68
2024/02/07 07:22:41;;;;;;;2.22;1.20;;;;;;;-3.13;100.00;99402.81;5118605;28;20027;-68
2024/02/07 07:25:06;;;;;;;3.65;1.10;;;;;;;-3.17;100.00;99404.91;5101600;28;20031;-69
2024/02/07 07:27:32;;;;;;;2.03;1.30;;;;;;;-3.32;100.00;99380.03;5117083;28;20387;-69
2024/02/07 07:29:57;;;;;;;2.45;1.30;;;;;;;-3.09;100.00;99410.25;5117145;28;20023;-69
2024/02/07 07:32:22;;;;;;;2.08;1.30;;;;;;;-3.11;100.00;99428.00;5100385;28;20031;-68
2024/02/07 07:34:48;;;;;;;1.75;1.00;;;;;;;-3.16;100.00;99432.84;5118171;28;20080;-69
2024/02/07 07:37:13;;;;;;;3.55;1.33;;;;;;;-3.22;100.00;99432.59;5116263;28;20502;-68
2024/02/07 07:39:41;;;;;;;2.78;1.15;;;;;;;-3.18;100.00;99444.50;5099904;28;20054;-69
2024/02/07 07:42:06;;;;;;;2.45;1.30;;;;;;;-3.15;100.00;99450.28;5116596;28;20051;-69
2024/02/07 07:44:33;;;;;;;2.40;1.10;;;;;;;-3.08;100.00;99463.69;5117741;28;20060;-68
2024/02/07 07:46:58;;;;;;;2.83;1.52;;;;;;;-2.96;100.00;99462.53;5117500;28;20781;-68
2024/02/07 07:49:24;;;;;;;2.10;1.10;;;;;;;-2.96;100.00;99465.19;5116815;28;20102;-70
2024/02/07 07:51:49;;;;;;;3.38;1.25;;;;;;;-3.08;100.00;99466.31;5116356;28;20023;-68
2024/02/07 07:54:15;;;;;;;2.25;1.20;;;;;;;-3.19;100.00;99461.25;5117039;28;20031;-69
2024/02/07 07:56:40;;;;;;;2.78;1.30;;;;;;;-3.06;100.00;99472.28;5116739;28;20026;-69
2024/02/07 07:59:05;;;;;;;2.40;1.27;;;;;;;-3.12;100.00;99473.69;5116165;28;20035;-70
2024/02/07 08:01:31;;;;;;;2.35;1.30;;;;;;;-3.32;100.00;99444.00;5116940;28;20537;-70
2024/02/07 08:03:58;;;;;;;1.88;1.17;;;;;;;-3.20;100.00;99447.28;5116922;28;20118;-69
2024/02/07 08:06:23;;;;;;;4.07;1.30;;;;;;;-3.09;100.00;99469.94;5116924;28;20122;-68
2024/02/07 08:08:49;;;;;;;2.50;1.20;;;;;;;-3.09;100.00;99465.50;5117631;28;20114;-70
2024/02/07 08:11:14;;;;;;;2.58;1.45;;;;;;;-3.15;100.00;99486.31;5117639;28;20023;-69
2024/02/07 08:13:40;;;;;;;2.72;1.55;;;;;;;-3.21;100.00;99474.56;5115685;28;20508;-69
2024/02/07 08:16:06;;;;;;;2.08;1.05;;;;;;;-3.13;100.00;99493.09;5116109;28;20020;-70
2024/02/07 08:18:34;;;;;;;1.92;1.17;;;;;;;-3.18;100.00;99497.09;5115493;28;20020;-69
2024/02/07 08:20:59;;;;;;;2.40;1.20;;;;;;;-3.06;100.00;99490.72;5116129;28;20087;-69
2024/02/07 08:23:25;;;;;;;2.30;1.10;;;;;;;-3.02;100.00;99493.88;5116051;28;20058;-70
2024/02/07 08:25:50;;;;;;;3.80;1.40;;;;;;;-3.03;100.00;99500.94;5117012;28;20031;-70
2024/02/07 08:28:16;;;;;;;2.67;1.20;;;;;;;-3.00;100.00;99510.38;5117612;28;20053;-69
2024/02/07 08:30:41;;;;;;;2.45;1.20;;;;;;;-3.02;100.00;99512.28;5117871;28;20023;-69
2024/02/07 08:33:08;;;;;;;4.07;1.60;;;;;;;-3.05;100.00;99513.41;5117606;28;20390;-70
2024/02/07 08:35:33;;;;;;;3.33;1.35;;;;;;;-3.10;100.00;99497.25;5117392;28;20042;-69
2024/02/07 08:37:59;;;;;;;3.85;1.30;;;;;;;-2.98;100.00;99509.25;5115818;28;20048;-68
2024/02/07 08:40:25;;;;;;;2.63;1.20;;;;;;;-2.88;100.00;99515.31;5115904;28;20509;-69
2024/02/07 08:42:50;;;;;;;2.83;1.23;;;;;;;-2.86;100.00;99520.41;5099586;28;20096;-70
2024/02/07 08:45:17;;;;;;;1.85;1.08;;;;;;;-2.76;100.00;99513.31;5116946;28;20020;-69
2024/02/07 08:47:43;;;;;;;3.10;1.25;;;;;;;-2.73;100.00;99522.72;5118502;28;20038;-70
2024/02/07 08:50:09;;;;;;;3.17;1.23;;;;;;;-2.72;100.00;99530.47;5103527;28;20031;-69
2024/02/07 08:52:37;;;;;;;2.25;1.40;;;;;;;-2.90;100.00;99508.53;5118893;28;20090;-70
2024/02/07 08:55:02;;;;;;;2.17;1.23;;;;;;;-2.65;100.00;99531.56;5120229;28;20027;-69
2024/02/07 08:57:28;;;;;;;3.92;1.50;;;;;;;-2.83;100.00;99533.28;5119454;28;20041;-70
2024/02/07 08:59:54;;;;;;;1.73;1.10;;;;;;;-2.81;100.00;99535.75;5121284;28;20382;-70
2024/02/07 09:02:19;;;;;;;4.00;1.30;;;;;;;-2.74;100.00;99539.50;5119829;28;20366;-68
2024/02/07 09:04:45;;;;;;;3.80;1.40;;;;;;;-2.82;100.00;99529.66;5120664;28;20092;-69
2024/02/07 09:07:10;;;;;;;2.92;1.50;;;;;;;-2.88;100.00;99524.97;5119294;28;20031;-71
2024/02/07 09:09:36;;;;;;;2.20;1.35;;;;;;;-2.97;100.00;99505.63;5118850;28;20019;-68
2024/02/07 09:12:01;;;;;;;4.63;1.50;;;;;;;-2.67;100.00;99543.22;5120119;28;20031;-69
2024/02/07 09:14:27;;;;;;;4.05;1.58;;;;;;;-2.72;100.00;99534.91;5120693;28;20080;-69
2024/02/07 09:16:52;;;;;;;3.35;1.30;;;;;;;-2.66;100.00;99550.13;5119737;28;20035;-68
2024/02/07 09:19:18;;;;;;;2.67;1.48;;;;;;;-2.75;100.00;99548.34;5119721;28;20028;-68
2024/02/07 09:21:44;;;;;;;2.72;1.10;;;;;;;-2.72;100.00;99548.06;5102484;28;20036;-68
2024/02/07 09:24:09;;;;;;;2.40;1.33;;;;;;;-2.69;100.00;99545.97;5118991;28;20203;-69
2024/02/07 09:26:35;;;;;;;4.13;1.40;;;;;;;-2.68;100.00;99552.91;5101752;28;20067;-68
2024/02/07 09:29:00;;;;;;;4.00;1.27;;;;;;;-2.65;100.00;99546.50;5119232;28;20016;-68
2024/02/07 09:31:26;;;;;;;5.53;1.40;;;;;;;-2.57;100.00;99551.88;5120543;28;20031;-70
2024/02/07 09:33:51;;;;;;;3.03;1.30;;;;;;;-2.48;100.00;99553.66;5121475;27;20035;-68
2024/02/07 09:36:16;;;;;;;2.35;1.27;;;;;;;-2.46;100.00;99550.88;5119778;28;20052;-69
2024/02/07 09:38:42;;;;;;;2.58;1.10;;;;;;;-2.63;100.00;99523.50;5101621;28;20027;-68
2024/02/07 09:41:08;;;;;;;2.55;1.20;;;;;;;-2.40;100.00;99553.75;5118295;28;20490;-69
2024/02/07 09:43:34;;;;;;;2.10;1.40;;;;;;;-2.44;100.00;99560.28;5119164;28;20033;-68
2024/02/07 09:46:00;;;;;;;3.63;1.95;;;;;;;-2.42;100.00;99560.13;5118426;28;20027;-70
2024/02/07 09:48:26;;;;;;;2.95;1.45;;;;;;;-2.28;100.00;99566.72;5117386;28;20473;-68
2024/02/07 09:50:59;;;;;;;4.07;1.30;;;;;;;-2.23;100.00;99575.00;5118456;28;20447;-69
2024/02/07 09:53:26;;;;;;;2.97;1.30;;;;;;;-2.13;100.00;99581.88;5119382;28;20023;-68
2024/02/07 09:55:52;;;;;;;3.38;2.40;;;;;;;-2.03;100.00;99578.38;5101243;28;20059;-68
2024/02/07 09:58:20;;;;;;;2.10;1.20;;;;;;;-1.97;100.00;99581.22;5119041;28;20490;-68
2024/02/07 10:00:47;;;;;;;2.00;1.13;;;;;;;-2.05;100.00;99561.84;5117164;28;20024;-68
2024/02/07 10:03:14;;;;;;;2.17;1.40;;;;;;;-1.77;100.00;99589.00;5118439;28;20099;-68
2024/02/07 10:05:48;;;;;;;2.88;2.05;;;;;;;-1.71;100.00;99589.25;5119220;28;20051;-68
2024/02/07 10:08:14;;;;;;;2.20;1.48;;;;;;;-1.62;100.00;99595.44;5118998;28;20106;-68
2024/02/07 10:10:44;;;;;;;3.47;1.67;;;;;;;-1.73;100.00;99574.53;5117222;28;20123;-69
2024/02/07 10:13:12;;;;;;;6.13;2.58;;;;;;;-1.57;100.00;99600.25;5117149;28;20027;-68
2024/02/07 10:15:37;;;;;;;4.22;1.70;;;;;;;-1.57;100.00;99597.63;5118781;28;20028;-69
2024/02/07 10:18:03;;;;;;;1.27;0.90;;;;;;;-1.62;100.00;99602.50;5119368;28;20045;-68
2024/02/07 10:20:29;;;;;;;1.77;1.10;;;;;;;-1.74;100.00;99607.19;5119181;28;20063;-69
2024/02/07 10:22:54;;;;;;;3.05;1.33;;;;;;;-1.84;100.00;99609.88;5100628;28;20092;-69
2024/02/07 10:25:19;;;;;;;1.38;0.80;;;;;;;-1.65;100.00;99611.56;5118459;28;20134;-72
2024/02/07 10:27:45;;;;;;;2.47;0.90;;;;;;;-1.63;100.00;99601.66;5100330;28;20034;-68
2024/02/07 10:30:13;;;;;;;1.08;0.70;;;;;;;-1.86;100.00;99611.00;5119116;28;20091;-69
2024/02/07 10:32:40;;;;;;;3.80;1.60;;;;;;;-1.77;100.00;99610.13;5119348;28;20059;-68
2024/02/07 10:35:10;;;;;;;3.13;1.77;;;;;;;-1.90;100.00;99594.66;5117718;28;20027;-69
2024/02/07 10:37:42;;;;;;;1.30;0.88;;;;;;;-1.73;100.00;99617.56;5117305;28;20052;-67
2024/02/07 10:40:09;;;;;;;1.33;0.77;;;;;;;-1.72;100.00;99623.69;5117065;28;20100;-71
2024/02/07 10:42:35;;;;;;;1.63;0.80;;;;;;;-1.88;100.00;99618.25;5119551;28;20023;-68
2024/02/07 10:45:08;;;;;;;1.52;0.80;;;;;;;-1.78;100.00;99632.19;5118995;28;20123;-67
2024/02/07 10:47:35;;;;;;;1.95;0.77;;;;;;;-1.64;100.00;99631.66;5117343;28;20464;-68
2024/02/07 10:50:06;;;;;;;2.08;0.85;;;;;;;-1.77;100.00;99631.22;5114215;28;20034;-69
2024/02/07 10:52:32;;;;;;;3.53;0.80;;;;;;;-1.75;100.00;99624.81;5116198;28;20019;-68
2024/02/07 10:54:58;;;;;;;1.55;0.80;;;;;;;-1.59;100.00;99624.16;5118036;28;20068;-68
2024/02/07 10:57:32;;;;;;;1.48;0.80;;;;;;;-1.60;100.00;99629.56;5099486;28;20035;-68
2024/02/07 10:59:59;;;;;;;2.03;0.77;;;;;;;-1.64;100.00;99628.22;5116938;28;20015;-67
2024/02/07 11:02:25;;;;;;;1.73;0.90;;;;;;;-1.59;100.00;99624.16;5118444;28;20145;-68
2024/02/07 11:04:51;;;;;;;29.63;12.25;;;;;;;-1.56;100.00;99623.00;5118478;28;20034;-68
2024/02/07 11:07:17;;;;;;;12.10;5.03;;;;;;;-1.67;100.00;99632.78;5117880;28;20024;-67
2024/02/07 11:09:46;;;;;;;2.22;1.10;;;;;;;-1.57;100.00;99645.09;5116519;28;20035;-67
2024/02/07 11:12:13;;;;;;;1.98;1.10;;;;;;;-1.64;100.00;99650.13;5118246;28;20098;-71
2024/02/07 11:14:39;;;;;;;2.13;0.95;;;;;;;-1.62;100.00;99656.09;5099928;28;20027;-67
2024/02/07 11:17:08;;;;;;;2.78;0.90;;;;;;;-1.59;100.00;99660.22;5117820;28;20042;-71
2024/02/07 11:19:33;;;;;;;1.98;0.90;;;;;;;-1.62;100.00;99658.75;5117829;28;20094;-70
2024/02/07 11:22:00;;;;;;;1.88;1.00;;;;;;;-1.74;100.00;99659.91;5117500;28;20023;-68
2024/02/07 11:24:26;;;;;;;1.35;0.88;;;;;;;-1.73;100.00;99667.66;5116557;28;20490;-69
2024/02/07 11:26:51;;;;;;;1.40;1.00;;;;;;;-1.96;100.00;99640.06;5098545;28;20043;-68
2024/02/07 11:29:17;;;;;;;1.85;1.20;;;;;;;-1.88;100.00;99671.78;5098839;28;20553;-69
2024/02/07 11:31:43;;;;;;;2.33;1.08;;;;;;;-1.78;100.00;99666.47;5116755;28;20055;-68
2024/02/07 11:34:08;;;;;;;3.33;1.10;;;;;;;-1.86;100.00;99642.63;5115190;28;20534;-68
2024/02/07 11:36:34;;;;;;;3.40;1.27;;;;;;;-1.64;100.00;99668.59;5115064;28;20103;-69
2024/02/07 11:38:59;;;;;;;2.03;1.10;;;;;;;-1.48;100.00;99668.78;5116743;28;20031;-68
2024/02/07 11:41:27;;;;;;;2.10;1.08;;;;;;;-1.46;100.00;99666.81;5116172;28;20077;-68
2024/02/07 11:44:04;;;;;;;1.83;1.05;;;;;;;-1.46;100.00;99663.31;5115919;28;20023;-68
2024/02/07 11:46:29;;;;;;;2.58;1.30;;;;;;;-1.54;100.00;99671.19;5116747;28;20528;-68
2024/02/07 11:49:00;;;;;;;2.45;1.25;;;;;;;-1.46;100.00;99676.53;5115570;28;20024;-68
2024/02/07 11:51:26;;;;;;;2.20;1.20;;;;;;;-1.49;100.00;99682.94;5116857;28;20064;-68
2024/02/07 11:53:58;;;;;;;1.83;1.25;;;;;;;-1.80;100.00;99658.69;5116444;28;20039;-68
2024/02/07 11:56:24;;;;;;;2.83;1.30;;;;;;;-1.76;100.00;99688.22;5117046;28;20535;-68
2024/02/07 11:58:52;;;;;;;3.80;1.50;;;;;;;-1.64;100.00;99694.16;5115399;28;20036;-68
2024/02/07 12:01:18;;;;;;;4.30;1.65;;;;;;;-1.45;100.00;99701.94;5115903;28;20111;-68
2024/02/07 12:03:43;;;;;;;3.10;1.30;;;;;;;-1.40;100.00;99699.66;5115463;28;20490;-68
2024/02/07 12:06:10;;;;;;;2.55;1.40;;;;;;;-1.60;100.00;99664.69;5117387;28;20027;-68
2024/02/07 12:08:39;;;;;;;2.90;1.23;;;;;;;-1.60;100.00;99659.41;5098368;28;20107;-68
2024/02/07 12:11:05;;;;;;;2.53;1.30;;;;;;;-1.42;100.00;99697.19;5115425;28;20075;-68
2024/02/07 12:13:33;;;;;;;2.50;1.45;;;;;;;-1.61;100.00;99689.41;5114636;28;20026;-68
2024/02/07 12:16:05;;;;;;;2.25;1.35;;;;;;;-1.45;100.00;99705.41;5116015;28;20026;-68
2024/02/07 12:18:31;;;;;;;2.58;1.50;;;;;;;-1.46;100.00;99706.41;5116276;28;20026;-68
2024/02/07 12:21:01;;;;;;;2.90;1.77;;;;;;;-1.69;100.00;99681.38;5114863;28;20049;-68
2024/02/07 12:23:30;;;;;;;3.20;1.58;;;;;;;-1.73;100.00;99685.31;5099680;28;20500;-68
2024/02/07 12:26:02;;;;;;;2.13;1.10;;;;;;;-1.81;100.00;99683.41;5085484;28;20059;-67